createdAt,value
2022-08-20T00:01:45.167Z,99671.84
2022-08-20T00:06:50.726Z,99673.61
2022-08-20T00:11:56.187Z,99665.29
2022-08-20T00:17:02.109Z,99668.89
2022-08-20T00:22:07.865Z,99672.17
2022-08-20T00:27:13.313Z,99675.42
2022-08-20T00:32:19.860Z,99674.41
2022-08-20T00:37:26.003Z,99668.09
2022-08-20T00:42:31.545Z,99665.56
2022-08-20T00:47:37.363Z,99677.34
2022-08-20T00:52:43.866Z,99685.38
2022-08-20T00:58:01.150Z,99690.38
2022-08-20T01:03:10.102Z,99683.34
2022-08-20T01:08:17.077Z,99675.46
2022-08-20T01:13:24.073Z,99677.48
2022-08-20T01:18:30.157Z,99673.60
2022-08-20T01:23:39.297Z,99658.96
2022-08-20T01:28:45.916Z,99646.63
2022-08-20T01:33:51.657Z,99647.67
2022-08-20T01:38:57.306Z,99639.20
2022-08-20T01:44:02.925Z,99642.84
2022-08-20T01:49:18.281Z,99648.70
2022-08-20T01:54:29.593Z,99649.24
2022-08-20T01:59:35.352Z,99644.61
2022-08-20T02:04:40.897Z,99644.20
2022-08-20T02:09:46.396Z,99641.61
2022-08-20T02:14:53.645Z,99635.81
2022-08-20T02:20:00.748Z,99628.86
2022-08-20T02:25:06.942Z,99621.43
2022-08-20T02:30:27.606Z,99617.94
2022-08-20T02:35:34.040Z,99625.73
2022-08-20T02:40:39.720Z,99616.73
2022-08-20T02:45:45.381Z,99609.45
2022-08-20T02:50:51.621Z,99609.36
2022-08-20T02:55:57.068Z,99611.15
2022-08-20T03:01:02.953Z,99604.62
2022-08-20T03:06:09.673Z,99612.59
2022-08-20T03:11:15.079Z,99625.29
2022-08-20T03:16:20.921Z,99616.23
2022-08-20T03:21:27.034Z,99612.63
2022-08-20T03:26:32.669Z,99611.55
2022-08-20T03:31:38.461Z,99612.36
2022-08-20T03:36:43.811Z,99619.39
2022-08-20T03:41:49.248Z,99621.66
2022-08-20T03:46:55.084Z,99623.17
2022-08-20T03:52:01.813Z,99621.77
2022-08-20T03:57:12.846Z,99628.59
2022-08-20T04:02:18.803Z,99628.33
2022-08-20T04:07:27.949Z,99629.36
2022-08-20T04:12:33.355Z,99641.96
2022-08-20T04:17:42.474Z,99642.30
2022-08-20T04:22:57.538Z,99643.45
2022-08-20T04:28:07.062Z,99642.70
2022-08-20T04:33:12.602Z,99638.67
2022-08-20T04:38:18.965Z,99635.34
2022-08-20T04:43:25.153Z,99633.11
2022-08-20T04:48:31.638Z,99642.08
2022-08-20T04:53:37.186Z,99638.02
2022-08-20T04:58:48.304Z,99625.85
2022-08-20T05:03:55.125Z,99616.77
2022-08-20T05:09:01.417Z,99614.80
2022-08-20T05:14:09.334Z,99631.93
2022-08-20T05:19:15.165Z,99629.60
2022-08-20T05:24:20.747Z,99618.89
2022-08-20T05:29:28.147Z,99614.22
2022-08-20T05:34:33.692Z,99621.30
2022-08-20T05:39:39.111Z,99641.10
2022-08-20T05:44:47.604Z,99659.84
2022-08-20T05:49:52.984Z,99686.55
2022-08-20T05:54:58.809Z,99695.29
2022-08-20T06:00:06.333Z,99712.69
2022-08-20T06:05:17.537Z,99681.27
2022-08-20T06:10:22.808Z,99632.48
2022-08-20T06:15:28.792Z,99599.61
2022-08-20T06:20:34.695Z,99580.36
2022-08-20T06:25:40.517Z,99563.85
2022-08-20T06:30:46.122Z,99557.54
2022-08-20T06:35:51.644Z,99557.46
2022-08-20T06:40:57.518Z,99581.58
2022-08-20T06:46:03.216Z,99608.40
2022-08-20T06:51:10.186Z,99641.86
2022-08-20T06:56:16.094Z,99653.68
2022-08-20T07:01:22.294Z,99656.90
2022-08-20T07:06:28.759Z,99662.70
2022-08-20T07:11:36.098Z,99663.42
2022-08-20T07:16:41.882Z,99655.25
2022-08-20T07:21:50.618Z,99655.56
2022-08-20T07:26:56.998Z,99660.50
2022-08-20T07:32:21.903Z,99660.86
2022-08-20T07:37:28.568Z,99654.95
2022-08-20T07:42:34.643Z,99634.08
2022-08-20T07:47:41.085Z,99644.92
2022-08-20T07:52:47.373Z,99647.50
2022-08-20T07:57:53.535Z,99643.64
2022-08-20T08:03:00.647Z,99641.44
2022-08-20T08:08:07.940Z,99636.96
2022-08-20T08:13:15.071Z,99639.54
2022-08-20T08:18:28.786Z,99634.69
2022-08-20T08:23:37.729Z,99631.23
2022-08-20T08:28:44.960Z,99627.58
2022-08-20T08:33:51.204Z,99623.11
2022-08-20T08:38:57.417Z,99626.77
2022-08-20T08:44:06.471Z,99620.67
2022-08-20T08:49:16.072Z,99613.50
2022-08-20T08:54:25.207Z,99604.75
2022-08-20T08:59:52.459Z,99596.17
2022-08-20T09:05:00.464Z,99588.73
2022-08-20T09:10:07.646Z,99582.79
2022-08-20T09:15:15.034Z,99584.39
2022-08-20T09:20:25.950Z,99584.70
2022-08-20T09:25:35.303Z,99574.01
2022-08-20T09:30:41.399Z,99575.21
2022-08-20T09:35:49.531Z,99585.41
2022-08-20T09:40:55.681Z,99588.94
2022-08-20T09:46:02.826Z,99587.10
2022-08-20T09:51:09.200Z,99588.86
2022-08-20T09:56:16.302Z,99588.00
2022-08-20T10:01:23.410Z,99594.40
2022-08-20T10:06:30.921Z,99593.77
2022-08-20T10:11:39.663Z,99595.21
2022-08-20T10:16:46.330Z,99593.05
2022-08-20T10:21:54.248Z,99592.65
2022-08-20T10:27:01.317Z,99594.89
2022-08-20T10:32:15.221Z,99585.23
2022-08-20T10:37:22.689Z,99575.13
2022-08-20T10:42:29.326Z,99574.27
2022-08-20T10:47:35.540Z,99577.15
2022-08-20T10:52:41.918Z,99582.04
2022-08-20T10:57:48.887Z,99580.52
2022-08-20T11:02:56.398Z,99586.31
2022-08-20T11:08:03.897Z,99585.30
2022-08-20T11:13:12.612Z,99579.63
2022-08-20T11:18:18.612Z,99570.15
2022-08-20T11:23:25.241Z,99584.67
2022-08-20T11:28:33.607Z,99578.44
2022-08-20T11:33:39.922Z,99569.23
2022-08-20T11:38:46.754Z,99568.23
2022-08-20T11:44:17.448Z,99557.31
2022-08-20T11:49:20.231Z,99548.45
2022-08-20T11:54:29.200Z,99540.49
2022-08-20T11:59:35.022Z,99535.11
2022-08-20T12:04:41.242Z,99532.76
2022-08-20T12:09:50.763Z,99529.98
2022-08-20T12:14:58.045Z,99525.92
2022-08-20T12:20:06.631Z,99530.11
2022-08-20T12:25:13.760Z,99531.77
2022-08-20T12:30:21.353Z,99527.89
2022-08-20T12:35:27.772Z,99526.67
2022-08-20T12:40:34.858Z,99521.89
2022-08-20T12:45:42.076Z,99522.79
2022-08-20T12:50:50.481Z,99527.84
2022-08-20T12:55:56.908Z,99513.99
2022-08-20T13:01:03.401Z,99521.29
2022-08-20T13:06:10.086Z,99525.52
2022-08-20T13:11:16.445Z,99518.98
2022-08-20T13:16:22.405Z,99518.17
2022-08-20T13:21:29.344Z,99511.14
2022-08-20T13:26:36.492Z,99511.35
2022-08-20T13:31:45.584Z,99510.02
2022-08-20T13:36:51.441Z,99499.26
2022-08-20T13:41:57.306Z,99504.48
2022-08-20T13:47:14.654Z,99501.13
2022-08-20T13:52:20.328Z,99501.52
2022-08-20T13:57:27.524Z,99501.02
2022-08-20T14:02:32.823Z,99493.30
2022-08-20T14:07:38.494Z,99486.39
2022-08-20T14:12:44.001Z,99487.77
2022-08-20T14:17:53.132Z,99484.48
2022-08-20T14:22:59.122Z,99485.04
2022-08-20T14:28:13.481Z,99475.51
2022-08-20T14:33:19.057Z,99477.45
2022-08-20T14:38:24.680Z,99476.22
2022-08-20T14:43:33.028Z,99472.58
2022-08-20T14:48:38.496Z,99467.14
2022-08-20T14:53:44.217Z,99467.54
2022-08-20T14:58:49.768Z,99470.85
2022-08-20T15:03:55.399Z,99471.50
2022-08-20T15:09:00.836Z,99477.52
2022-08-20T15:14:06.518Z,99487.59
2022-08-20T15:19:12.140Z,99491.94
2022-08-20T15:24:19.243Z,99495.20
2022-08-20T15:29:25.007Z,99502.41
2022-08-20T15:34:30.984Z,99506.85
2022-08-20T15:39:36.786Z,99512.91
2022-08-20T15:44:43.083Z,99513.23
2022-08-20T15:49:50.047Z,99520.73
2022-08-20T15:54:56.472Z,99521.55
2022-08-20T16:00:10.637Z,99518.84
2022-08-20T16:05:21.438Z,99514.45
2022-08-20T16:10:29.799Z,99511.23
2022-08-20T16:15:37.537Z,99511.92
2022-08-20T16:20:43.866Z,99508.45
2022-08-20T16:25:59.221Z,99507.97
2022-08-20T16:31:05.713Z,99510.69
2022-08-20T16:36:17.155Z,99511.46
2022-08-20T16:41:26.219Z,99510.98
2022-08-20T16:46:37.975Z,99510.27
2022-08-20T16:51:49.423Z,99508.34
2022-08-20T16:57:01.410Z,99512.37
2022-08-20T17:02:10.449Z,99514.96
2022-08-20T17:07:16.245Z,99519.32
2022-08-20T17:12:23.630Z,99519.96
2022-08-20T17:17:30.305Z,99518.02
2022-08-20T17:22:43.394Z,99519.40
2022-08-20T17:27:49.467Z,99520.55
2022-08-20T17:33:01.516Z,99518.98
2022-08-20T17:38:07.145Z,99519.00
2022-08-20T17:43:24.838Z,99517.36
2022-08-20T17:48:33.029Z,99522.81
2022-08-20T17:53:40.700Z,99523.35
2022-08-20T17:58:57.265Z,99523.14
2022-08-20T18:04:05.670Z,99527.49
2022-08-20T18:09:13.538Z,99539.27
2022-08-20T18:14:28.449Z,99541.31
2022-08-20T18:19:44.278Z,99545.61
2022-08-20T18:24:56.515Z,99546.67
2022-08-20T18:30:02.961Z,99542.09
2022-08-20T18:35:19.563Z,99541.85
2022-08-20T18:40:33.251Z,99536.86
2022-08-20T18:45:38.844Z,99541.69
2022-08-20T18:50:48.107Z,99541.38
2022-08-20T18:56:04.167Z,99534.52
2022-08-20T19:01:13.425Z,99545.47
2022-08-20T19:06:38.117Z,99542.95
2022-08-20T19:12:02.756Z,99538.13
2022-08-20T19:17:11.519Z,99543.34
2022-08-20T19:22:19.661Z,99546.35
2022-08-20T19:27:25.388Z,99552.86
2022-08-20T19:32:32.346Z,99562.16
2022-08-20T19:37:50.699Z,99568.16
2022-08-20T19:42:59.066Z,99574.39
2022-08-20T19:48:11.175Z,99578.58
2022-08-20T19:53:27.488Z,99581.51
2022-08-20T19:58:37.344Z,99573.92
2022-08-20T20:03:43.294Z,99568.50
2022-08-20T20:08:54.820Z,99562.77
2022-08-20T20:14:04.746Z,99560.92
2022-08-20T20:19:28.085Z,99561.12
2022-08-20T20:24:43.008Z,99563.59
2022-08-20T20:29:49.922Z,99565.94
2022-08-20T20:34:56.540Z,99563.26
2022-08-20T20:40:05.562Z,99570.80
2022-08-20T20:45:21.585Z,99580.02
2022-08-20T20:50:32.952Z,99587.02
2022-08-20T20:55:40.255Z,99584.20
2022-08-20T21:00:45.816Z,99585.16
2022-08-20T21:05:51.507Z,99579.08
2022-08-20T21:10:58.361Z,99572.62
2022-08-20T21:16:03.941Z,99571.22
2022-08-20T21:21:10.723Z,99573.09
2022-08-20T21:26:16.032Z,99575.92
2022-08-20T21:31:21.519Z,99575.51
2022-08-20T21:36:27.075Z,99579.57
2022-08-20T21:41:32.694Z,99578.55
2022-08-20T21:46:39.062Z,99581.17
2022-08-20T21:51:44.756Z,99576.46
2022-08-20T21:56:51.387Z,99575.17
2022-08-20T22:01:57.527Z,99581.25
2022-08-20T22:07:03.152Z,99583.79
2022-08-20T22:12:12.674Z,99585.41
2022-08-20T22:17:18.407Z,99578.48
2022-08-20T22:22:24.553Z,99575.42
2022-08-20T22:27:29.931Z,99580.90
2022-08-20T22:32:50.452Z,99583.36
2022-08-20T22:37:58.253Z,99581.98
2022-08-20T22:43:03.773Z,99589.92
2022-08-20T22:48:09.751Z,99600.84
2022-08-20T22:53:15.937Z,99608.19
2022-08-20T22:58:31.124Z,99604.98
2022-08-20T23:03:39.858Z,99604.63
2022-08-20T23:08:46.078Z,99610.56
2022-08-20T23:13:51.566Z,99623.27
2022-08-20T23:18:56.814Z,99618.23
2022-08-20T23:24:02.242Z,99617.36
2022-08-20T23:29:08.159Z,99613.68
2022-08-20T23:34:13.601Z,99611.84
2022-08-20T23:39:19.134Z,99600.11
2022-08-20T23:44:26.804Z,99593.94
2022-08-20T23:49:33.404Z,99592.67
2022-08-20T23:54:39.201Z,99593.00
2022-08-20T23:59:44.794Z,99586.95
